createdAt,value
2023-04-16T00:01:20.966Z,18.97
2023-04-16T00:03:48.708Z,18.97
2023-04-16T00:06:16.511Z,18.98
2023-04-16T00:08:43.973Z,18.97
2023-04-16T00:11:11.665Z,18.97
2023-04-16T00:13:38.916Z,18.96
2023-04-16T00:16:06.651Z,18.96
2023-04-16T00:18:33.893Z,18.96
2023-04-16T00:21:01.156Z,18.96
2023-04-16T00:23:28.446Z,18.96
2023-04-16T00:25:59.792Z,18.96
2023-04-16T00:28:27.717Z,18.96
2023-04-16T00:30:55.817Z,18.94
2023-04-16T00:33:23.813Z,18.95
2023-04-16T00:35:51.265Z,18.95
2023-04-16T00:38:18.609Z,18.94
2023-04-16T00:40:45.930Z,18.95
2023-04-16T00:43:24.765Z,18.94
2023-04-16T00:45:56.880Z,18.95
2023-04-16T00:48:24.896Z,18.94
2023-04-16T00:50:52.138Z,18.94
2023-04-16T00:53:19.540Z,18.95
2023-04-16T00:55:46.873Z,18.95
2023-04-16T00:58:14.223Z,18.94
2023-04-16T01:00:41.719Z,18.95
2023-04-16T01:03:09.751Z,18.95
2023-04-16T01:05:37.383Z,18.95
2023-04-16T01:08:04.978Z,18.95
2023-04-16T01:10:32.350Z,18.94
2023-04-16T01:12:59.592Z,18.96
2023-04-16T01:15:26.830Z,18.94
2023-04-16T01:17:54.119Z,18.94
2023-04-16T01:20:21.438Z,18.94
2023-04-16T01:22:49.137Z,18.93
2023-04-16T01:25:16.648Z,18.93
2023-04-16T01:27:44.014Z,18.93
2023-04-16T01:30:11.533Z,18.94
2023-04-16T01:32:49.618Z,18.93
2023-04-16T01:35:18.262Z,18.93
2023-04-16T01:37:45.784Z,18.94
2023-04-16T01:40:13.240Z,18.92
2023-04-16T01:42:40.572Z,18.91
2023-04-16T01:45:08.423Z,18.93
2023-04-16T01:47:36.003Z,18.92
2023-04-16T01:50:04.244Z,18.92
2023-04-16T01:52:31.613Z,18.92
2023-04-16T01:54:58.833Z,18.91
2023-04-16T01:57:26.098Z,18.92
2023-04-16T01:59:53.969Z,18.90
2023-04-16T02:02:28.001Z,18.90
2023-04-16T02:04:59.529Z,18.91
2023-04-16T02:07:27.418Z,18.91
2023-04-16T02:09:54.743Z,18.91
2023-04-16T02:12:22.836Z,18.90
2023-04-16T02:14:50.168Z,18.90
2023-04-16T02:17:19.967Z,18.91
2023-04-16T02:19:49.900Z,18.90
2023-04-16T02:22:17.965Z,18.91
2023-04-16T02:24:45.505Z,18.91
2023-04-16T02:27:12.866Z,18.91
2023-04-16T02:29:40.867Z,18.91
2023-04-16T02:32:13.946Z,18.90
2023-04-16T02:34:45.041Z,18.90
2023-04-16T02:37:15.391Z,18.89
2023-04-16T02:39:43.922Z,18.89
2023-04-16T02:42:11.185Z,18.90
2023-04-16T02:44:38.648Z,18.90
2023-04-16T02:47:05.968Z,18.89
2023-04-16T02:49:33.517Z,18.89
2023-04-16T02:52:00.762Z,18.88
2023-04-16T02:54:28.034Z,18.89
2023-04-16T02:56:55.643Z,18.89
2023-04-16T02:59:22.981Z,18.88
2023-04-16T03:01:50.511Z,18.89
2023-04-16T03:04:17.867Z,18.88
2023-04-16T03:06:45.276Z,18.89
2023-04-16T03:09:12.788Z,18.88
2023-04-16T03:11:40.042Z,18.88
2023-04-16T03:14:07.293Z,18.88
2023-04-16T03:16:34.526Z,18.88
2023-04-16T03:19:01.885Z,18.87
2023-04-16T03:21:29.199Z,18.87
2023-04-16T03:23:57.838Z,18.87
2023-04-16T03:26:25.190Z,18.87
2023-04-16T03:28:52.586Z,18.87
2023-04-16T03:31:20.737Z,18.87
2023-04-16T03:33:48.131Z,18.87
2023-04-16T03:36:15.724Z,18.87
2023-04-16T03:38:43.144Z,18.88
2023-04-16T03:41:11.458Z,18.87
2023-04-16T03:43:38.728Z,18.86
2023-04-16T03:46:06.274Z,18.87
2023-04-16T03:48:33.680Z,18.86
2023-04-16T03:51:01.166Z,18.88
2023-04-16T03:53:29.154Z,18.86
2023-04-16T03:55:56.526Z,18.86
2023-04-16T03:58:24.504Z,18.86
2023-04-16T04:00:55.254Z,18.86
2023-04-16T04:03:23.021Z,18.85
2023-04-16T04:05:50.871Z,18.87
2023-04-16T04:08:30.413Z,18.86
2023-04-16T04:10:57.689Z,18.87
2023-04-16T04:13:25.837Z,18.86
2023-04-16T04:15:54.036Z,18.86
2023-04-16T04:18:22.503Z,18.86
2023-04-16T04:20:49.927Z,18.86
2023-04-16T04:23:20.054Z,18.86
2023-04-16T04:25:48.344Z,18.86
2023-04-16T04:28:15.960Z,18.85
2023-04-16T04:30:43.274Z,18.86
2023-04-16T04:33:11.045Z,18.84
2023-04-16T04:35:39.098Z,18.84
2023-04-16T04:38:06.699Z,18.85
2023-04-16T04:40:34.817Z,18.85
2023-04-16T04:43:04.494Z,18.85
2023-04-16T04:45:32.343Z,18.84
2023-04-16T04:48:00.034Z,18.85
2023-04-16T04:50:27.372Z,18.84
2023-04-16T04:52:54.759Z,18.83
2023-04-16T04:55:22.741Z,18.83
2023-04-16T04:57:51.098Z,18.84
2023-04-16T05:00:18.679Z,18.83
2023-04-16T05:02:53.475Z,18.83
2023-04-16T05:05:21.062Z,18.83
2023-04-16T05:07:48.409Z,18.83
2023-04-16T05:10:15.812Z,18.84
2023-04-16T05:12:43.154Z,18.83
2023-04-16T05:15:10.754Z,18.83
2023-04-16T05:17:38.129Z,18.83
2023-04-16T05:20:06.190Z,18.82
2023-04-16T05:22:33.418Z,18.83
2023-04-16T05:25:00.667Z,18.83
2023-04-16T05:27:28.016Z,18.82
2023-04-16T05:29:55.269Z,18.83
2023-04-16T05:32:25.363Z,18.82
2023-04-16T05:34:52.652Z,18.82
2023-04-16T05:37:19.907Z,18.82
2023-04-16T05:39:47.824Z,18.81
2023-04-16T05:42:15.460Z,18.82
2023-04-16T05:44:42.707Z,18.81
2023-04-16T05:47:10.070Z,18.82
2023-04-16T05:49:37.382Z,18.83
2023-04-16T05:52:05.769Z,18.82
2023-04-16T05:54:33.050Z,18.82
2023-04-16T05:57:01.605Z,18.82
2023-04-16T05:59:29.546Z,18.81
2023-04-16T06:01:57.677Z,18.81
2023-04-16T06:04:25.074Z,18.82
2023-04-16T06:06:52.346Z,18.82
2023-04-16T06:09:19.636Z,18.81
2023-04-16T06:11:46.951Z,18.81
2023-04-16T06:14:14.385Z,18.82
2023-04-16T06:16:41.676Z,18.80
2023-04-16T06:19:09.220Z,18.81
2023-04-16T06:21:38.033Z,18.81
2023-04-16T06:24:05.882Z,18.82
2023-04-16T06:26:33.177Z,18.81
2023-04-16T06:29:00.793Z,18.82
2023-04-16T06:31:28.100Z,18.82
2023-04-16T06:33:55.337Z,18.81
2023-04-16T06:36:22.664Z,18.81
2023-04-16T06:38:50.021Z,18.82
2023-04-16T06:41:17.368Z,18.83
2023-04-16T06:43:44.813Z,18.82
2023-04-16T06:46:12.113Z,18.82
2023-04-16T06:48:39.497Z,18.82
2023-04-16T06:51:06.859Z,18.82
2023-04-16T06:53:34.199Z,18.82
2023-04-16T06:56:01.538Z,18.83
2023-04-16T06:58:29.128Z,18.83
2023-04-16T07:00:56.521Z,18.83
2023-04-16T07:03:23.988Z,18.83
2023-04-16T07:05:51.458Z,18.84
2023-04-16T07:08:18.763Z,18.84
2023-04-16T07:10:46.132Z,18.84
2023-04-16T07:13:13.519Z,18.83
2023-04-16T07:15:40.783Z,18.85
2023-04-16T07:18:08.092Z,18.84
2023-04-16T07:20:36.241Z,18.85
2023-04-16T07:23:03.629Z,18.85
2023-04-16T07:25:30.895Z,18.85
2023-04-16T07:27:58.170Z,18.85
2023-04-16T07:30:25.770Z,18.85
2023-04-16T07:32:53.308Z,18.86
2023-04-16T07:35:21.059Z,18.86
2023-04-16T07:37:48.415Z,18.86
2023-04-16T07:40:15.873Z,18.87
2023-04-16T07:42:43.332Z,18.88
2023-04-16T07:45:10.904Z,18.89
2023-04-16T07:47:38.393Z,18.90
2023-04-16T07:50:06.457Z,18.90
2023-04-16T07:52:33.908Z,18.92
2023-04-16T07:55:01.150Z,18.91
2023-04-16T07:57:28.386Z,18.91
2023-04-16T07:59:55.918Z,18.92
2023-04-16T08:02:23.544Z,18.93
2023-04-16T08:04:51.550Z,18.93
2023-04-16T08:07:22.978Z,18.95
2023-04-16T08:09:54.078Z,18.95
2023-04-16T08:12:21.743Z,18.97
2023-04-16T08:14:49.149Z,18.97
2023-04-16T08:17:16.792Z,18.99
2023-04-16T08:19:47.602Z,19.00
2023-04-16T08:22:15.409Z,19.00
2023-04-16T08:24:42.990Z,19.02
2023-04-16T08:27:19.323Z,19.04
2023-04-16T08:29:48.222Z,19.06
2023-04-16T08:32:15.668Z,19.06
2023-04-16T08:34:43.193Z,19.04
2023-04-16T08:37:10.659Z,19.01
2023-04-16T08:39:37.911Z,19.01
2023-04-16T08:42:06.326Z,19.01
2023-04-16T08:44:43.744Z,19.05
2023-04-16T08:47:12.754Z,19.05
2023-04-16T08:49:46.196Z,19.06
2023-04-16T08:52:22.464Z,19.05
2023-04-16T08:55:07.242Z,19.06
2023-04-16T08:57:41.226Z,19.07
2023-04-16T09:00:09.912Z,19.08
2023-04-16T09:02:38.347Z,19.09
2023-04-16T09:05:07.681Z,19.10
2023-04-16T09:07:36.835Z,19.11
2023-04-16T09:10:06.736Z,19.11
2023-04-16T09:12:35.518Z,19.09
2023-04-16T09:15:03.674Z,19.10
2023-04-16T09:17:31.350Z,19.09
2023-04-16T09:19:58.721Z,19.10
2023-04-16T09:22:26.171Z,19.10
2023-04-16T09:24:53.551Z,19.13
2023-04-16T09:27:22.947Z,19.12
2023-04-16T09:29:51.548Z,19.14
2023-04-16T09:32:25.284Z,19.14
2023-04-16T09:34:59.876Z,19.13
2023-04-16T09:37:31.553Z,19.13
2023-04-16T09:40:03.632Z,19.13
2023-04-16T09:42:44.471Z,19.13
2023-04-16T09:45:14.890Z,19.14
2023-04-16T09:47:44.081Z,19.13
2023-04-16T09:50:18.262Z,19.12
2023-04-16T09:52:49.603Z,19.13
2023-04-16T09:55:17.047Z,19.13
2023-04-16T09:57:44.292Z,19.14
2023-04-16T10:00:12.416Z,19.15
2023-04-16T10:02:42.898Z,19.17
2023-04-16T10:05:16.907Z,19.19
2023-04-16T10:07:44.180Z,19.20
2023-04-16T10:10:11.886Z,19.20
2023-04-16T10:12:39.529Z,19.21
2023-04-16T10:15:07.545Z,19.21
2023-04-16T10:17:35.806Z,19.21
2023-04-16T10:20:03.670Z,19.20
2023-04-16T10:22:31.154Z,19.21
2023-04-16T10:24:59.043Z,19.21
2023-04-16T10:27:27.099Z,19.24
2023-04-16T10:29:54.898Z,19.22
2023-04-16T10:32:23.404Z,19.19
2023-04-16T10:34:51.042Z,19.15
2023-04-16T10:37:18.661Z,19.12
2023-04-16T10:39:45.991Z,19.07
2023-04-16T10:42:13.563Z,19.05
2023-04-16T10:44:44.251Z,19.05
2023-04-16T10:47:14.011Z,19.07
2023-04-16T10:49:43.624Z,19.08
2023-04-16T10:52:20.300Z,19.11
2023-04-16T10:54:50.612Z,19.13
2023-04-16T10:57:20.090Z,19.14
2023-04-16T10:59:48.852Z,19.15
2023-04-16T11:02:18.216Z,19.16
2023-04-16T11:04:48.086Z,19.17
2023-04-16T11:07:17.706Z,19.19
2023-04-16T11:10:02.557Z,19.20
2023-04-16T11:12:29.987Z,19.22
2023-04-16T11:15:06.390Z,19.23
2023-04-16T11:17:40.905Z,19.23
2023-04-16T11:20:19.551Z,19.24
2023-04-16T11:22:51.843Z,19.24
2023-04-16T11:25:25.940Z,19.26
2023-04-16T11:27:53.862Z,19.27
2023-04-16T11:30:34.570Z,19.26
2023-04-16T11:33:12.190Z,19.27
2023-04-16T11:35:41.389Z,19.27
2023-04-16T11:38:09.127Z,19.29
2023-04-16T11:40:36.506Z,19.29
2023-04-16T11:43:15.410Z,19.29
2023-04-16T11:46:09.970Z,19.30
2023-04-16T11:48:48.080Z,19.32
2023-04-16T11:51:15.710Z,19.32
2023-04-16T11:53:53.330Z,19.32
2023-04-16T11:56:33.298Z,19.30
2023-04-16T11:59:11.698Z,19.28
2023-04-16T12:01:41.336Z,19.26
2023-04-16T12:04:09.739Z,19.22
2023-04-16T12:06:37.386Z,19.18
2023-04-16T12:09:24.881Z,19.16
2023-04-16T12:11:52.234Z,19.13
2023-04-16T12:14:20.025Z,19.13
2023-04-16T12:16:47.769Z,19.13
2023-04-16T12:19:15.300Z,19.11
2023-04-16T12:21:43.805Z,19.11
2023-04-16T12:24:13.621Z,19.13
2023-04-16T12:26:46.658Z,19.14
2023-04-16T12:29:18.660Z,19.12
2023-04-16T12:31:46.795Z,19.12
2023-04-16T12:34:15.276Z,19.09
2023-04-16T12:36:44.271Z,19.06
2023-04-16T12:39:12.494Z,19.06
2023-04-16T12:41:42.710Z,19.08
2023-04-16T12:44:12.865Z,19.05
2023-04-16T12:46:41.736Z,19.03
2023-04-16T12:49:10.699Z,19.00
2023-04-16T12:51:42.330Z,19.03
2023-04-16T12:54:09.700Z,19.03
2023-04-16T12:56:37.033Z,19.01
2023-04-16T12:59:04.916Z,19.00
2023-04-16T13:01:32.399Z,18.99
2023-04-16T13:03:59.789Z,19.02
2023-04-16T13:06:27.337Z,19.01
2023-04-16T13:08:54.557Z,18.99
2023-04-16T13:11:21.831Z,18.97
2023-04-16T13:13:49.097Z,18.96
2023-04-16T13:16:16.475Z,18.94
2023-04-16T13:18:43.898Z,18.94
2023-04-16T13:21:11.367Z,18.94
2023-04-16T13:23:38.735Z,18.93
2023-04-16T13:26:06.001Z,18.93
2023-04-16T13:28:33.435Z,18.92
2023-04-16T13:31:03.404Z,18.92
2023-04-16T13:33:32.527Z,18.88
2023-04-16T13:35:59.778Z,18.92
2023-04-16T13:38:27.064Z,18.91
2023-04-16T13:40:54.362Z,18.90
2023-04-16T13:43:22.430Z,18.88
2023-04-16T13:45:49.808Z,18.86
2023-04-16T13:48:17.914Z,18.86
2023-04-16T13:50:45.397Z,18.91
2023-04-16T13:53:12.746Z,18.89
2023-04-16T13:55:40.195Z,18.90
2023-04-16T13:58:07.533Z,18.92
2023-04-16T14:00:35.055Z,18.92
2023-04-16T14:03:02.505Z,18.91
2023-04-16T14:05:29.747Z,18.86
2023-04-16T14:07:57.007Z,18.87
2023-04-16T14:10:24.252Z,18.87
2023-04-16T14:12:51.893Z,18.86
2023-04-16T14:15:19.296Z,18.85
2023-04-16T14:17:46.838Z,18.82
2023-04-16T14:20:14.499Z,18.84
2023-04-16T14:22:43.883Z,18.85
2023-04-16T14:25:11.260Z,18.84
2023-04-16T14:27:38.759Z,18.84
2023-04-16T14:30:06.991Z,18.86
2023-04-16T14:32:34.330Z,18.86
2023-04-16T14:35:01.757Z,18.84
2023-04-16T14:37:29.062Z,18.84
2023-04-16T14:39:56.471Z,18.84
2023-04-16T14:42:23.863Z,18.86
2023-04-16T14:44:52.141Z,18.85
2023-04-16T14:47:19.403Z,18.85
2023-04-16T14:49:46.729Z,18.83
2023-04-16T14:52:14.023Z,18.82
2023-04-16T14:54:41.383Z,18.84
2023-04-16T14:57:08.598Z,18.83
2023-04-16T14:59:37.008Z,18.83
2023-04-16T15:02:04.631Z,18.84
2023-04-16T15:04:32.178Z,18.83
2023-04-16T15:06:59.789Z,18.83
2023-04-16T15:09:27.548Z,18.84
2023-04-16T15:11:54.983Z,18.85
2023-04-16T15:14:22.458Z,18.86
2023-04-16T15:16:49.851Z,18.87
2023-04-16T15:19:17.714Z,18.85
2023-04-16T15:21:46.462Z,18.88
2023-04-16T15:24:15.617Z,18.87
2023-04-16T15:26:43.208Z,18.91
2023-04-16T15:29:10.737Z,18.93
2023-04-16T15:31:38.043Z,18.96
2023-04-16T15:34:05.583Z,18.98
2023-04-16T15:36:34.027Z,18.98
2023-04-16T15:39:01.255Z,18.98
2023-04-16T15:41:31.963Z,19.00
2023-04-16T15:43:59.295Z,19.00
2023-04-16T15:46:26.771Z,19.01
2023-04-16T15:48:54.076Z,19.01
2023-04-16T15:51:21.329Z,19.03
2023-04-16T15:53:50.398Z,19.02
2023-04-16T15:56:17.699Z,19.02
2023-04-16T15:58:45.045Z,19.02
2023-04-16T16:01:12.596Z,19.01
2023-04-16T16:03:39.957Z,19.01
2023-04-16T16:06:08.875Z,19.00
2023-04-16T16:08:37.898Z,19.00
2023-04-16T16:11:05.295Z,19.01
2023-04-16T16:13:32.629Z,19.01
2023-04-16T16:15:59.934Z,19.01
2023-04-16T16:18:27.204Z,19.00
2023-04-16T16:20:57.315Z,19.01
2023-04-16T16:23:25.621Z,18.99
2023-04-16T16:25:52.909Z,19.00
2023-04-16T16:28:20.709Z,19.00
2023-04-16T16:30:48.092Z,19.00
2023-04-16T16:33:15.559Z,19.01
2023-04-16T16:35:42.861Z,19.01
2023-04-16T16:38:10.247Z,18.99
2023-04-16T16:40:38.664Z,19.01
2023-04-16T16:43:06.536Z,19.00
2023-04-16T16:45:33.805Z,19.00
2023-04-16T16:48:01.301Z,19.00
2023-04-16T16:50:28.782Z,19.01
2023-04-16T16:52:58.866Z,18.99
2023-04-16T16:55:26.591Z,19.01
2023-04-16T16:57:54.402Z,19.00
2023-04-16T17:00:22.218Z,19.01
2023-04-16T17:02:51.244Z,19.01
2023-04-16T17:05:18.944Z,19.03
2023-04-16T17:07:46.343Z,19.05
2023-04-16T17:10:20.050Z,19.04
2023-04-16T17:12:48.691Z,19.04
2023-04-16T17:15:17.247Z,19.03
2023-04-16T17:17:46.055Z,19.05
2023-04-16T17:20:14.376Z,19.04
2023-04-16T17:22:42.458Z,19.05
2023-04-16T17:25:10.309Z,19.07
2023-04-16T17:27:37.695Z,19.05
2023-04-16T17:30:05.920Z,19.05
2023-04-16T17:32:33.361Z,19.07
2023-04-16T17:35:03.995Z,19.07
2023-04-16T17:37:31.897Z,19.08
2023-04-16T17:39:59.566Z,19.08
2023-04-16T17:42:26.829Z,19.10
2023-04-16T17:44:54.046Z,19.11
2023-04-16T17:47:21.412Z,19.12
2023-04-16T17:49:48.737Z,19.12
2023-04-16T17:52:16.023Z,19.13
2023-04-16T17:54:43.384Z,19.13
2023-04-16T17:57:10.728Z,19.13
2023-04-16T17:59:38.000Z,19.13
2023-04-16T18:02:05.533Z,19.13
2023-04-16T18:04:33.313Z,19.13
2023-04-16T18:07:00.907Z,19.11
2023-04-16T18:09:28.385Z,19.09
2023-04-16T18:11:56.739Z,19.07
2023-04-16T18:14:24.004Z,19.07
2023-04-16T18:16:51.317Z,19.08
2023-04-16T18:19:18.680Z,19.09
2023-04-16T18:21:45.903Z,19.09
2023-04-16T18:24:13.846Z,19.11
2023-04-16T18:26:41.462Z,19.11
2023-04-16T18:29:09.200Z,19.12
2023-04-16T18:31:36.644Z,19.15
2023-04-16T18:34:03.996Z,19.15
2023-04-16T18:36:31.585Z,19.15
2023-04-16T18:39:01.783Z,19.17
2023-04-16T18:41:30.974Z,19.17
2023-04-16T18:43:58.657Z,19.18
2023-04-16T18:46:27.527Z,19.18
2023-04-16T18:48:55.068Z,19.19
2023-04-16T18:51:22.382Z,19.19
2023-04-16T18:53:49.632Z,19.20
2023-04-16T18:56:17.057Z,19.21
2023-04-16T18:58:44.489Z,19.21
2023-04-16T19:01:13.954Z,19.22
2023-04-16T19:03:41.311Z,19.22
2023-04-16T19:06:08.748Z,19.23
2023-04-16T19:08:36.064Z,19.23
2023-04-16T19:11:03.359Z,19.23
2023-04-16T19:13:32.234Z,19.24
2023-04-16T19:16:00.989Z,19.24
2023-04-16T19:18:28.392Z,19.25
2023-04-16T19:21:01.994Z,19.25
2023-04-16T19:23:29.391Z,19.25
2023-04-16T19:25:57.040Z,19.26
2023-04-16T19:28:25.142Z,19.26
2023-04-16T19:30:53.430Z,19.27
2023-04-16T19:33:21.031Z,19.26
2023-04-16T19:35:48.378Z,19.27
2023-04-16T19:38:15.691Z,19.27
2023-04-16T19:40:46.945Z,19.28
2023-04-16T19:43:14.798Z,19.27
2023-04-16T19:45:47.047Z,19.28
2023-04-16T19:48:14.518Z,19.27
2023-04-16T19:50:42.737Z,19.29
2023-04-16T19:53:11.011Z,19.29
2023-04-16T19:55:41.994Z,19.29
2023-04-16T19:58:09.758Z,19.29
2023-04-16T20:00:40.807Z,19.29
2023-04-16T20:03:08.265Z,19.29
2023-04-16T20:05:35.694Z,19.29
2023-04-16T20:08:03.439Z,19.29
2023-04-16T20:10:31.531Z,19.29
2023-04-16T20:12:59.164Z,19.29
2023-04-16T20:15:26.464Z,19.30
2023-04-16T20:17:56.093Z,19.29
2023-04-16T20:20:23.721Z,19.31
2023-04-16T20:22:51.272Z,19.31
2023-04-16T20:25:19.304Z,19.31
2023-04-16T20:27:46.851Z,19.30
2023-04-16T20:30:17.223Z,19.31
2023-04-16T20:32:44.546Z,19.30
2023-04-16T20:35:12.195Z,19.30
2023-04-16T20:37:41.935Z,19.30
2023-04-16T20:40:10.962Z,19.30
2023-04-16T20:42:38.992Z,19.29
2023-04-16T20:45:07.530Z,19.29
2023-04-16T20:47:35.215Z,19.29
2023-04-16T20:50:03.825Z,19.28
2023-04-16T20:52:31.231Z,19.29
2023-04-16T20:54:58.452Z,19.28
2023-04-16T20:57:26.100Z,19.29
2023-04-16T20:59:53.319Z,19.28
2023-04-16T21:02:27.526Z,19.29
2023-04-16T21:04:56.187Z,19.28
2023-04-16T21:07:23.671Z,19.28
2023-04-16T21:09:51.162Z,19.28
2023-04-16T21:12:18.699Z,19.29
2023-04-16T21:14:45.975Z,19.29
2023-04-16T21:17:13.666Z,19.27
2023-04-16T21:19:41.130Z,19.27
2023-04-16T21:22:08.385Z,19.28
2023-04-16T21:24:38.672Z,19.26
2023-04-16T21:27:05.986Z,19.27
2023-04-16T21:29:33.228Z,19.28
2023-04-16T21:32:00.714Z,19.29
2023-04-16T21:34:28.262Z,19.29
2023-04-16T21:36:55.948Z,19.29
2023-04-16T21:39:25.935Z,19.30
2023-04-16T21:41:53.254Z,19.30
2023-04-16T21:44:21.239Z,19.33
2023-04-16T21:46:48.696Z,19.34
2023-04-16T21:49:16.108Z,19.36
2023-04-16T21:51:46.090Z,19.37
2023-04-16T21:54:13.432Z,19.36
2023-04-16T21:56:40.827Z,19.37
2023-04-16T21:59:08.501Z,19.39
2023-04-16T22:01:35.855Z,19.37
2023-04-16T22:04:03.905Z,19.37
2023-04-16T22:06:31.279Z,19.36
2023-04-16T22:08:58.957Z,19.36
2023-04-16T22:11:26.220Z,19.37
2023-04-16T22:13:57.764Z,19.37
2023-04-16T22:16:25.681Z,19.37
2023-04-16T22:18:54.997Z,19.35
2023-04-16T22:21:22.350Z,19.37
2023-04-16T22:23:49.597Z,19.36
2023-04-16T22:26:17.007Z,19.37
2023-04-16T22:28:44.745Z,19.35
2023-04-16T22:31:14.627Z,19.35
2023-04-16T22:33:42.012Z,19.37
2023-04-16T22:36:09.433Z,19.35
2023-04-16T22:38:38.825Z,19.37
2023-04-16T22:41:06.271Z,19.35
2023-04-16T22:43:37.009Z,19.35
2023-04-16T22:46:06.481Z,19.35
2023-04-16T22:48:36.346Z,19.36
2023-04-16T22:51:07.657Z,19.36
2023-04-16T22:53:35.987Z,19.36
2023-04-16T22:56:03.249Z,19.35
2023-04-16T22:58:30.620Z,19.37
2023-04-16T23:00:59.573Z,19.34
2023-04-16T23:03:27.325Z,19.34
2023-04-16T23:05:54.751Z,19.33
2023-04-16T23:08:22.011Z,19.33
2023-04-16T23:10:49.272Z,19.31
2023-04-16T23:13:16.552Z,19.32
2023-04-16T23:15:43.903Z,19.31
2023-04-16T23:18:11.298Z,19.30
2023-04-16T23:20:38.787Z,19.31
2023-04-16T23:23:06.061Z,19.30
2023-04-16T23:25:33.217Z,19.29
2023-04-16T23:28:00.471Z,19.30
2023-04-16T23:30:27.730Z,19.29
2023-04-16T23:32:54.989Z,19.29
2023-04-16T23:35:22.944Z,19.28
2023-04-16T23:37:50.262Z,19.29
2023-04-16T23:40:17.680Z,19.28
2023-04-16T23:42:44.928Z,19.27
2023-04-16T23:45:12.390Z,19.26
2023-04-16T23:47:40.282Z,19.26
2023-04-16T23:50:07.847Z,19.26
2023-04-16T23:52:35.187Z,19.26
2023-04-16T23:55:02.416Z,19.25
2023-04-16T23:57:29.663Z,19.26
2023-04-16T23:59:56.895Z,19.25
